createdAt,value
2022-11-16T00:06:02.457Z,3.60
2022-11-16T00:08:31.279Z,4.50
2022-11-16T00:11:20.299Z,4.07
2022-11-16T00:14:06.804Z,6.00
2022-11-16T00:16:52.787Z,6.43
2022-11-16T00:19:38.407Z,7.00
2022-11-16T00:24:53.783Z,6.23
2022-11-16T00:27:20.990Z,4.93
2022-11-16T00:29:48.114Z,4.70
2022-11-16T00:32:15.265Z,5.07
2022-11-16T00:34:42.488Z,3.80
2022-11-16T00:37:09.571Z,5.13
2022-11-16T00:39:39.656Z,5.73
2022-11-16T00:42:09.885Z,4.80
2022-11-16T00:44:37.039Z,3.80
2022-11-16T00:47:13.503Z,4.50
2022-11-16T00:49:40.707Z,4.37
2022-11-16T00:55:38.773Z,4.60
2022-11-16T00:58:05.965Z,3.47
2022-11-16T01:00:33.142Z,4.90
2022-11-16T01:03:09.687Z,3.37
2022-11-16T01:05:37.078Z,4.50
2022-11-16T01:08:04.498Z,3.30
2022-11-16T01:10:32.155Z,4.50
2022-11-16T01:13:03.821Z,4.13
2022-11-16T01:15:31.007Z,5.60
2022-11-16T01:18:09.383Z,3.80
2022-11-16T01:20:36.471Z,4.37
2022-11-16T01:23:03.656Z,4.63
2022-11-16T01:25:46.179Z,3.70
2022-11-16T01:28:25.587Z,4.53
2022-11-16T01:30:52.674Z,5.30
2022-11-16T01:33:38.715Z,4.83
2022-11-16T01:36:18.321Z,3.97
2022-11-16T01:38:47.125Z,3.93
2022-11-16T01:41:17.230Z,4.50
2022-11-16T01:43:55.033Z,4.00
2022-11-16T01:46:23.121Z,5.00
2022-11-16T01:48:57.629Z,5.30
2022-11-16T01:51:29.742Z,5.33
2022-11-16T01:54:13.144Z,4.30
2022-11-16T01:56:56.436Z,6.47
2022-11-16T02:02:41.226Z,4.83
2022-11-16T02:05:14.798Z,4.53
2022-11-16T02:08:09.627Z,3.90
2022-11-16T02:11:18.891Z,3.93
2022-11-16T02:14:13.702Z,5.70
2022-11-16T02:17:17.638Z,3.90
2022-11-16T02:20:06.687Z,4.43
2022-11-16T02:23:06.168Z,6.23
2022-11-16T02:25:53.094Z,5.60
2022-11-16T02:28:37.156Z,5.97
2022-11-16T02:32:13.764Z,5.00
2022-11-16T02:34:46.355Z,4.43
2022-11-16T02:37:18.380Z,5.37
2022-11-16T02:39:54.435Z,6.70
2022-11-16T02:42:42.188Z,5.40
2022-11-16T02:45:35.563Z,5.43
2022-11-16T02:54:51.280Z,6.83
2022-11-16T02:57:37.459Z,5.93
2022-11-16T03:00:54.008Z,4.90
2022-11-16T03:07:27.587Z,4.93
2022-11-16T03:12:42.152Z,5.00
2022-11-16T03:15:21.247Z,12.80
2022-11-16T03:17:53.980Z,5.80
2022-11-16T03:21:05.379Z,6.50
2022-11-16T03:23:54.742Z,5.60
2022-11-16T03:30:51.688Z,7.27
2022-11-16T03:33:48.689Z,6.90
2022-11-16T03:36:41.899Z,5.20
2022-11-16T03:39:39.685Z,5.47
2022-11-16T03:42:13.966Z,5.60
2022-11-16T03:44:55.242Z,5.07
2022-11-16T03:50:39.015Z,3.93
2022-11-16T03:53:15.408Z,3.57
2022-11-16T03:59:19.875Z,6.23
2022-11-16T04:01:47.095Z,5.10
2022-11-16T04:04:36.744Z,6.07
2022-11-16T04:23:34.515Z,5.70
2022-11-16T04:26:11.834Z,5.00
2022-11-16T04:28:39.719Z,6.30
2022-11-16T04:31:25.433Z,9.17
2022-11-16T04:34:31.134Z,5.73
2022-11-16T04:37:20.738Z,8.30
2022-11-16T04:39:47.867Z,10.10
2022-11-16T04:42:19.741Z,6.67
2022-11-16T04:45:14.747Z,5.03
2022-11-16T04:47:41.954Z,6.37
2022-11-16T04:50:16.853Z,6.33
2022-11-16T04:56:28.848Z,5.77
2022-11-16T04:59:30.663Z,5.73
2022-11-16T05:02:15.538Z,7.63
2022-11-16T05:05:22.318Z,6.00
2022-11-16T05:08:09.239Z,5.73
2022-11-16T05:10:43.933Z,5.33
2022-11-16T05:13:21.807Z,5.97
2022-11-16T05:15:49.105Z,7.23
2022-11-16T05:18:35.455Z,6.50
2022-11-16T05:21:09.213Z,5.30
2022-11-16T05:24:03.819Z,8.30
2022-11-16T05:26:36.949Z,8.10
2022-11-16T05:29:15.924Z,6.97
2022-11-16T05:32:20.645Z,7.83
2022-11-16T05:38:20.753Z,7.03
2022-11-16T05:46:24.735Z,7.17
2022-11-16T05:48:53.344Z,7.70
2022-11-16T05:52:12.312Z,18.40
2022-11-16T05:54:51.706Z,7.20
2022-11-16T06:04:28.224Z,7.57
2022-11-16T06:07:41.681Z,13.03
2022-11-16T06:34:52.288Z,12.60
2022-11-16T06:37:19.457Z,12.17
2022-11-16T06:40:06.112Z,21.47
2022-11-16T06:42:35.861Z,45.40
2022-11-16T06:45:06.415Z,8.90
2022-11-16T06:47:41.919Z,46.33
2022-11-16T06:50:21.072Z,8.67
2022-11-16T06:53:16.901Z,13.53
2022-11-16T06:55:50.526Z,15.10
2022-11-16T06:58:26.988Z,67.10
2022-11-16T07:04:04.430Z,11.40
2022-11-16T07:06:48.020Z,49.37
2022-11-16T07:09:15.701Z,21.57
2022-11-16T07:12:00.310Z,26.40
2022-11-16T07:14:36.586Z,12.70
2022-11-16T07:17:12.806Z,34.30
2022-11-16T07:19:40.340Z,9.30
2022-11-16T07:22:17.594Z,19.70
2022-11-16T07:24:56.847Z,16.67
2022-11-16T07:27:34.203Z,33.00
2022-11-16T07:30:02.285Z,28.10
2022-11-16T07:32:40.101Z,25.83
2022-11-16T07:35:26.276Z,12.73
2022-11-16T07:38:02.715Z,38.00
2022-11-16T07:41:00.917Z,19.33
2022-11-16T07:43:31.944Z,25.47
2022-11-16T07:46:44.681Z,84.57
2022-11-16T07:49:15.199Z,12.63
2022-11-16T07:52:10.326Z,27.37
2022-11-16T07:54:43.253Z,24.80
2022-11-16T07:57:54.801Z,15.57
2022-11-16T08:00:31.676Z,11.33
2022-11-16T08:02:58.838Z,11.87
2022-11-16T08:06:13.364Z,9.47
2022-11-16T08:08:40.641Z,13.43
2022-11-16T08:11:12.680Z,10.23
2022-11-16T08:13:41.247Z,11.83
2022-11-16T08:16:37.464Z,9.50
2022-11-16T08:19:19.253Z,13.00
2022-11-16T08:21:47.930Z,8.60
2022-11-16T08:24:40.978Z,10.50
2022-11-16T08:27:08.388Z,10.40
2022-11-16T08:30:00.623Z,9.07
2022-11-16T08:32:30.074Z,9.07
2022-11-16T08:35:03.446Z,9.00
2022-11-16T08:37:32.731Z,9.23
2022-11-16T08:40:50.969Z,11.07
2022-11-16T08:43:29.329Z,8.83
2022-11-16T09:18:40.112Z,9.90
2022-11-16T09:21:07.390Z,11.90
2022-11-16T09:23:45.040Z,10.37
2022-11-16T09:26:13.835Z,8.60
2022-11-16T09:28:44.853Z,11.90
2022-11-16T09:31:12.444Z,9.97
2022-11-16T09:34:03.676Z,19.07
2022-11-16T09:36:31.540Z,11.30
2022-11-16T09:39:30.108Z,11.20
2022-11-16T09:42:32.956Z,21.60
2022-11-16T09:45:33.741Z,10.77
2022-11-16T09:48:16.217Z,14.03
2022-11-16T09:50:52.805Z,13.00
2022-11-16T09:53:38.507Z,16.40
2022-11-16T09:56:37.037Z,15.50
2022-11-16T10:03:48.749Z,14.27
2022-11-16T10:15:44.794Z,10.50
2022-11-16T10:59:03.797Z,10.07
2022-11-16T11:01:41.405Z,9.40
2022-11-16T11:04:27.008Z,9.00
2022-11-16T11:07:15.027Z,9.10
2022-11-16T11:09:52.723Z,7.57
2022-11-16T11:12:45.179Z,7.97
2022-11-16T11:15:33.171Z,10.03
2022-11-16T11:18:51.654Z,8.10
2022-11-16T11:21:30.651Z,9.50
2022-11-16T11:24:29.298Z,8.07
2022-11-16T11:27:00.741Z,8.83
2022-11-16T11:29:59.831Z,7.57
2022-11-16T11:36:57.096Z,8.20
2022-11-16T11:39:40.176Z,7.47
2022-11-16T11:50:49.309Z,5.80
2022-11-16T11:53:52.984Z,7.50
2022-11-16T12:00:57.799Z,7.50
2022-11-16T12:03:55.460Z,6.23
2022-11-16T12:06:34.702Z,8.17
2022-11-16T12:09:59.406Z,5.33
2022-11-16T12:13:31.318Z,6.97
2022-11-16T12:16:49.884Z,6.70
2022-11-16T12:19:59.615Z,6.83
2022-11-16T12:23:05.239Z,6.60
2022-11-16T12:26:06.037Z,6.17
2022-11-16T12:33:21.333Z,9.30
2022-11-16T12:45:22.041Z,6.57
2022-11-16T12:47:49.753Z,7.87
2022-11-16T12:51:32.000Z,5.77
2022-11-16T12:55:19.072Z,12.63
2022-11-16T13:08:52.922Z,11.07
2022-11-16T13:11:53.675Z,10.90
2022-11-16T13:14:43.284Z,14.50
2022-11-16T13:17:27.262Z,14.47
2022-11-16T13:20:28.961Z,12.50
2022-11-16T13:23:19.555Z,15.27
2022-11-16T13:26:10.772Z,15.00
2022-11-16T13:29:45.754Z,13.40
2022-11-16T13:32:41.621Z,14.97
2022-11-16T13:35:25.562Z,15.87
2022-11-16T13:37:52.796Z,14.27
2022-11-16T13:40:38.487Z,13.07
2022-11-16T13:43:18.243Z,14.63
2022-11-16T13:45:58.135Z,18.07
2022-11-16T13:48:53.318Z,14.07
2022-11-16T13:51:31.908Z,17.67
2022-11-16T13:54:45.827Z,17.70
2022-11-16T13:57:44.808Z,18.07
2022-11-16T14:00:23.850Z,13.67
2022-11-16T14:03:16.901Z,15.87
2022-11-16T14:05:47.050Z,14.00
2022-11-16T14:08:22.956Z,14.40
2022-11-16T14:10:50.349Z,13.93
2022-11-16T14:13:47.496Z,14.27
2022-11-16T14:16:31.053Z,15.03
2022-11-16T14:19:43.157Z,13.63
2022-11-16T14:22:54.476Z,13.50
2022-11-16T14:25:46.427Z,11.40
2022-11-16T14:28:19.940Z,11.40
2022-11-16T14:31:35.548Z,11.13
2022-11-16T14:34:17.479Z,12.57
2022-11-16T14:45:03.259Z,12.10
2022-11-16T14:47:36.809Z,10.63
2022-11-16T14:50:39.692Z,12.30
2022-11-16T14:53:35.742Z,13.93
2022-11-16T14:56:37.188Z,13.63
2022-11-16T14:59:07.662Z,14.67
2022-11-16T15:02:27.340Z,13.20
2022-11-16T15:05:01.640Z,19.50
2022-11-16T15:07:32.804Z,14.53
2022-11-16T15:10:03.738Z,15.77
2022-11-16T15:12:51.327Z,13.57
2022-11-16T15:15:26.836Z,13.33
2022-11-16T15:18:27.889Z,14.93
2022-11-16T15:20:55.426Z,13.97
2022-11-16T15:23:31.201Z,13.63
2022-11-16T15:26:00.389Z,13.73
2022-11-16T15:28:34.453Z,13.60
2022-11-16T15:31:31.775Z,14.13
2022-11-16T15:34:01.695Z,15.83
2022-11-16T15:36:41.292Z,14.13
2022-11-16T15:39:34.283Z,17.27
2022-11-16T15:42:04.245Z,14.70
2022-11-16T15:44:37.579Z,65.17
2022-11-16T15:47:08.468Z,15.63
2022-11-16T15:49:41.381Z,19.77
2022-11-16T15:52:09.439Z,16.23
2022-11-16T15:55:07.309Z,15.57
2022-11-16T15:58:25.289Z,17.50
2022-11-16T16:01:54.194Z,17.40
2022-11-16T16:04:32.922Z,14.70
2022-11-16T16:07:05.569Z,15.90
2022-11-16T16:10:34.123Z,18.00
2022-11-16T16:13:30.196Z,34.93
2022-11-16T16:16:30.422Z,21.70
2022-11-16T16:19:36.452Z,18.33
2022-11-16T16:22:32.632Z,14.67
2022-11-16T16:25:32.251Z,21.23
2022-11-16T16:28:16.285Z,18.10
2022-11-16T16:30:45.785Z,19.00
2022-11-16T16:33:19.782Z,19.67
2022-11-16T16:36:36.958Z,18.70
2022-11-16T16:38:46.533Z,18.90
2022-11-16T16:41:42.291Z,17.60
2022-11-16T16:45:17.977Z,19.03
2022-11-16T16:47:47.887Z,21.33
2022-11-16T16:50:40.426Z,19.57
2022-11-16T16:53:52.481Z,24.90
2022-11-16T16:56:34.950Z,17.27
2022-11-16T16:59:02.363Z,21.80
2022-11-16T17:01:31.976Z,18.97
2022-11-16T17:03:59.321Z,20.63
2022-11-16T17:06:46.777Z,15.37
2022-11-16T17:09:14.591Z,28.27
2022-11-16T17:11:47.197Z,20.47
2022-11-16T17:14:31.091Z,21.30
2022-11-16T17:20:41.377Z,18.63
2022-11-16T17:26:29.693Z,21.30
2022-11-16T17:31:51.894Z,16.30
2022-11-16T17:34:22.213Z,24.53
2022-11-16T17:36:50.846Z,31.83
2022-11-16T17:39:34.332Z,19.33
2022-11-16T17:45:06.848Z,20.33
2022-11-16T17:47:43.639Z,20.33
2022-11-16T17:50:19.907Z,19.57
2022-11-16T17:53:09.301Z,18.03
2022-11-16T17:58:49.823Z,22.90
2022-11-16T18:01:58.232Z,28.17
2022-11-16T18:04:38.818Z,16.97
2022-11-16T18:13:48.226Z,22.70
2022-11-16T18:16:21.072Z,24.20
2022-11-16T18:22:39.722Z,29.13
2022-11-16T18:25:27.261Z,20.83
2022-11-16T18:27:55.595Z,23.83
2022-11-16T18:30:28.265Z,30.13
2022-11-16T18:33:17.644Z,28.43
2022-11-16T18:35:45.266Z,31.20
2022-11-16T18:38:13.311Z,32.20
2022-11-16T18:40:40.874Z,34.73
2022-11-16T18:43:14.385Z,27.93
2022-11-16T18:45:41.640Z,33.47
2022-11-16T18:48:21.114Z,25.10
2022-11-16T18:50:48.417Z,30.00
2022-11-16T18:53:15.637Z,34.07
2022-11-16T18:55:57.460Z,30.33
2022-11-16T19:01:37.142Z,23.87
2022-11-16T19:04:49.428Z,23.03
2022-11-16T19:07:30.073Z,24.90
2022-11-16T19:10:32.387Z,22.93
2022-11-16T19:16:31.797Z,24.50
2022-11-16T19:19:39.894Z,33.07
2022-11-16T19:25:08.353Z,30.17
2022-11-16T19:31:08.710Z,51.55
2022-11-16T19:36:58.514Z,28.50
2022-11-16T19:43:35.662Z,44.83
2022-11-16T19:46:21.801Z,45.67
2022-11-16T19:49:10.140Z,65.83
2022-11-16T19:51:43.734Z,55.53
2022-11-16T19:54:17.532Z,40.87
2022-11-16T19:56:55.261Z,55.13
2022-11-16T20:00:08.150Z,34.27
2022-11-16T20:02:44.014Z,51.33
2022-11-16T20:05:22.547Z,34.97
2022-11-16T20:08:19.764Z,35.53
2022-11-16T20:10:54.812Z,36.27
2022-11-16T20:13:55.013Z,42.27
2022-11-16T20:17:08.176Z,37.87
2022-11-16T20:55:14.891Z,26.37
2022-11-16T20:57:48.077Z,25.33
2022-11-16T21:00:24.247Z,28.93
2022-11-16T21:03:01.649Z,31.37
2022-11-16T21:05:48.807Z,23.03
2022-11-16T21:08:43.832Z,28.00
2022-11-16T21:11:51.308Z,21.83
2022-11-16T21:14:33.468Z,21.00
2022-11-16T21:20:26.246Z,24.27
2022-11-16T21:23:21.594Z,28.43
2022-11-16T21:29:03.529Z,25.27
2022-11-16T21:31:36.268Z,27.00
2022-11-16T21:46:06.133Z,24.43
2022-11-16T21:48:56.988Z,23.90
2022-11-16T21:51:43.087Z,68.00
2022-11-16T21:57:43.907Z,16.13
2022-11-16T22:03:08.602Z,16.83
2022-11-16T22:06:54.765Z,20.70
2022-11-16T22:16:24.306Z,21.23
2022-11-16T22:21:25.194Z,24.23
2022-11-16T22:22:25.298Z,49.10
2022-11-16T22:25:00.486Z,30.40
2022-11-16T22:30:36.208Z,30.07
2022-11-16T22:33:17.710Z,63.60
2022-11-16T22:45:14.086Z,20.53
2022-11-16T22:48:31.347Z,23.97
2022-11-16T22:51:29.836Z,20.03
2022-11-16T22:53:59.807Z,59.20
2022-11-16T22:56:27.881Z,46.53
2022-11-16T23:01:48.646Z,17.67
2022-11-16T23:04:47.208Z,14.73
2022-11-16T23:16:38.476Z,18.17
2022-11-16T23:22:40.594Z,14.00
2022-11-16T23:25:54.521Z,11.70
2022-11-16T23:28:40.094Z,32.80
2022-11-16T23:31:07.354Z,35.33
2022-11-16T23:33:47.901Z,38.13
2022-11-16T23:36:15.245Z,14.17
2022-11-16T23:38:42.519Z,44.07
2022-11-16T23:41:29.422Z,33.93
2022-11-16T23:46:48.257Z,23.50
2022-11-16T23:49:24.703Z,30.90
2022-11-16T23:54:48.609Z,61.67
2022-11-16T23:57:22.062Z,136.40
